createdAt,value
2022-12-24T00:01:27.248Z,96060.03
2022-12-24T00:03:55.276Z,96057.16
2022-12-24T00:06:25.559Z,96066.69
2022-12-24T00:08:54.116Z,96061.97
2022-12-24T00:11:22.533Z,96062.78
2022-12-24T00:13:50.978Z,96071.50
2022-12-24T00:16:19.087Z,96068.88
2022-12-24T00:18:47.351Z,96069.88
2022-12-24T00:21:16.364Z,96072.66
2022-12-24T00:23:45.906Z,96065.63
2022-12-24T00:26:15.049Z,96060.94
2022-12-24T00:28:43.537Z,96073.34
2022-12-24T00:31:14.150Z,96068.72
2022-12-24T00:33:42.435Z,96058.84
2022-12-24T00:36:11.389Z,96074.69
2022-12-24T00:38:39.889Z,96070.00
2022-12-24T00:41:24.746Z,96062.31
2022-12-24T00:43:54.732Z,96057.63
2022-12-24T00:46:23.268Z,96049.94
2022-12-24T00:48:51.581Z,96059.13
2022-12-24T00:51:21.104Z,96074.03
2022-12-24T00:53:50.058Z,96075.19
2022-12-24T00:56:20.229Z,96083.00
2022-12-24T00:58:48.738Z,96087.81
2022-12-24T01:01:17.320Z,96090.78
2022-12-24T01:03:45.551Z,96090.69
2022-12-24T01:06:15.388Z,96090.56
2022-12-24T01:08:44.073Z,96098.81
2022-12-24T01:11:14.447Z,96117.50
2022-12-24T01:13:43.882Z,96112.13
2022-12-24T01:16:18.361Z,96116.28
2022-12-24T01:18:46.808Z,96124.19
2022-12-24T01:21:15.999Z,96127.28
2022-12-24T01:23:44.723Z,96126.81
2022-12-24T01:26:13.132Z,96142.66
2022-12-24T01:28:43.045Z,96143.09
2022-12-24T01:31:17.123Z,96179.47
2022-12-24T01:33:46.485Z,96175.34
2022-12-24T01:36:15.317Z,96182.91
2022-12-24T01:38:43.558Z,96179.72
2022-12-24T01:41:34.706Z,96170.88
2022-12-24T01:44:26.162Z,96174.53
2022-12-24T01:47:03.244Z,96189.75
2022-12-24T01:49:32.137Z,96187.94
2022-12-24T01:52:06.050Z,96199.84
2022-12-24T01:54:39.125Z,96208.91
2022-12-24T01:57:20.636Z,96204.91
2022-12-24T01:59:54.566Z,96210.28
2022-12-24T02:02:23.352Z,96220.00
2022-12-24T02:04:58.005Z,96220.94
2022-12-24T02:07:26.526Z,96219.69
2022-12-24T02:10:01.162Z,96217.38
2022-12-24T02:12:33.053Z,96222.84
2022-12-24T02:15:03.014Z,96227.09
2022-12-24T02:17:36.472Z,96213.25
2022-12-24T02:21:00.958Z,96221.16
2022-12-24T02:23:57.352Z,96216.53
2022-12-24T02:26:48.430Z,96222.69
2022-12-24T02:29:39.054Z,96212.38
2022-12-24T02:32:16.084Z,96208.13
2022-12-24T02:34:52.536Z,96203.53
2022-12-24T02:37:27.370Z,96189.31
2022-12-24T02:40:02.843Z,96194.72
2022-12-24T02:42:38.709Z,96211.66
2022-12-24T02:45:11.422Z,96206.97
2022-12-24T02:47:43.126Z,96206.06
2022-12-24T02:50:16.608Z,96216.94
2022-12-24T02:52:46.933Z,96221.63
2022-12-24T02:55:19.917Z,96228.06
2022-12-24T02:58:16.087Z,96235.91
2022-12-24T03:00:59.200Z,96238.19
2022-12-24T03:03:39.729Z,96232.34
2022-12-24T03:06:16.372Z,96230.28
2022-12-24T03:08:55.734Z,96251.06
2022-12-24T03:11:23.948Z,96252.16
2022-12-24T03:13:53.881Z,96247.19
2022-12-24T03:16:27.974Z,96239.81
2022-12-24T03:18:59.844Z,96248.56
2022-12-24T03:21:32.004Z,96270.63
2022-12-24T03:24:00.482Z,96281.63
2022-12-24T03:26:32.289Z,96283.22
2022-12-24T03:29:01.095Z,96277.03
2022-12-24T03:31:40.324Z,96271.34
2022-12-24T03:34:09.907Z,96268.47
2022-12-24T03:36:38.259Z,96277.78
2022-12-24T03:39:07.173Z,96275.53
2022-12-24T03:41:35.390Z,96294.31
2022-12-24T03:44:03.814Z,96291.69
2022-12-24T03:46:31.847Z,96303.81
2022-12-24T03:48:59.887Z,96299.16
2022-12-24T03:51:29.612Z,96297.50
2022-12-24T03:53:58.764Z,96300.91
2022-12-24T03:56:27.337Z,96293.81
2022-12-24T03:58:55.365Z,96294.25
2022-12-24T04:01:23.688Z,96288.31
2022-12-24T04:03:51.865Z,96305.75
2022-12-24T04:06:19.896Z,96292.84
2022-12-24T04:08:49.207Z,96294.47
2022-12-24T04:11:18.357Z,96288.81
2022-12-24T04:13:46.579Z,96298.88
2022-12-24T04:16:17.228Z,96295.19
2022-12-24T04:18:45.800Z,96294.75
2022-12-24T04:21:13.857Z,96307.06
2022-12-24T04:23:43.096Z,96306.47
2022-12-24T04:26:14.499Z,96299.44
2022-12-24T04:28:43.609Z,96294.47
2022-12-24T04:31:14.925Z,96293.59
2022-12-24T04:33:43.667Z,96293.72
2022-12-24T04:36:15.163Z,96312.84
2022-12-24T04:38:43.369Z,96301.50
2022-12-24T04:41:22.654Z,96308.16
2022-12-24T04:43:52.669Z,96327.41
2022-12-24T04:46:23.903Z,96320.16
2022-12-24T04:48:54.860Z,96322.00
2022-12-24T04:51:23.948Z,96325.16
2022-12-24T04:53:51.965Z,96329.97
2022-12-24T04:56:24.786Z,96331.16
2022-12-24T04:58:53.082Z,96337.81
2022-12-24T05:01:24.789Z,96336.16
2022-12-24T05:03:53.670Z,96332.78
2022-12-24T05:06:24.834Z,96328.28
2022-12-24T05:08:55.634Z,96325.91
2022-12-24T05:11:25.712Z,96313.59
2022-12-24T05:13:53.776Z,96334.47
2022-12-24T05:16:24.472Z,96335.19
2022-12-24T05:18:53.759Z,96348.00
2022-12-24T05:21:24.580Z,96330.88
2022-12-24T05:24:10.688Z,96332.13
2022-12-24T05:26:44.378Z,96331.22
2022-12-24T05:29:13.349Z,96329.84
2022-12-24T05:31:42.391Z,96322.31
2022-12-24T05:34:11.011Z,96317.91
2022-12-24T05:36:39.675Z,96316.22
2022-12-24T05:39:13.481Z,96316.66
2022-12-24T05:41:46.068Z,96328.09
2022-12-24T05:44:14.718Z,96324.50
2022-12-24T05:46:43.187Z,96312.81
2022-12-24T05:49:11.659Z,96330.53
2022-12-24T05:51:41.200Z,96327.41
2022-12-24T05:54:09.417Z,96325.91
2022-12-24T05:56:37.502Z,96336.00
2022-12-24T05:59:06.890Z,96337.59
2022-12-24T06:01:35.217Z,96330.66
2022-12-24T06:04:03.580Z,96325.75
2022-12-24T06:06:31.668Z,96333.16
2022-12-24T06:08:59.735Z,96345.88
2022-12-24T06:11:29.125Z,96354.59
2022-12-24T06:13:58.101Z,96350.44
2022-12-24T06:16:27.900Z,96342.28
2022-12-24T06:18:56.188Z,96345.16
2022-12-24T06:21:24.536Z,96354.88
2022-12-24T06:23:53.008Z,96344.47
2022-12-24T06:26:23.824Z,96352.78
2022-12-24T06:28:52.805Z,96348.88
2022-12-24T06:31:23.258Z,96348.06
2022-12-24T06:33:53.797Z,96365.34
2022-12-24T06:36:25.295Z,96364.91
2022-12-24T06:38:54.449Z,96374.44
2022-12-24T06:41:23.514Z,96374.06
2022-12-24T06:43:54.328Z,96385.56
2022-12-24T06:46:23.321Z,96385.84
2022-12-24T06:48:52.932Z,96395.56
2022-12-24T06:51:21.465Z,96404.31
2022-12-24T06:53:50.557Z,96404.66
2022-12-24T06:56:19.780Z,96419.66
2022-12-24T06:58:48.650Z,96411.97
2022-12-24T07:01:19.331Z,96409.78
2022-12-24T07:03:48.401Z,96411.59
2022-12-24T07:06:27.020Z,96401.34
2022-12-24T07:08:55.443Z,96409.41
2022-12-24T07:11:25.714Z,96414.66
2022-12-24T07:13:54.001Z,96414.53
2022-12-24T07:16:22.465Z,96416.13
2022-12-24T07:18:50.745Z,96416.88
2022-12-24T07:21:20.169Z,96415.13
2022-12-24T07:23:48.313Z,96417.91
2022-12-24T07:26:16.378Z,96429.91
2022-12-24T07:28:44.507Z,96436.34
2022-12-24T07:31:12.794Z,96455.59
2022-12-24T07:33:40.865Z,96455.97
2022-12-24T07:36:20.267Z,96458.41
2022-12-24T07:38:50.088Z,96454.84
2022-12-24T07:41:18.449Z,96463.50
2022-12-24T07:43:46.739Z,96457.09
2022-12-24T07:46:15.707Z,96465.47
2022-12-24T07:48:43.745Z,96461.78
2022-12-24T07:51:11.892Z,96464.38
2022-12-24T07:53:40.103Z,96462.16
2022-12-24T07:56:12.918Z,96463.75
2022-12-24T07:58:41.493Z,96466.41
2022-12-24T08:01:10.604Z,96464.84
2022-12-24T08:03:39.693Z,96467.34
2022-12-24T08:09:03.350Z,96468.34
2022-12-24T08:11:32.700Z,96474.78
2022-12-24T08:14:00.766Z,96483.94
2022-12-24T08:16:30.172Z,96475.03
2022-12-24T08:18:58.258Z,96476.47
2022-12-24T08:21:26.237Z,96470.81
2022-12-24T08:23:54.676Z,96478.88
2022-12-24T08:26:22.741Z,96490.84
2022-12-24T08:28:52.122Z,96497.75
2022-12-24T08:31:20.149Z,96497.56
2022-12-24T08:33:48.203Z,96497.91
2022-12-24T08:36:16.216Z,96503.19
2022-12-24T08:38:44.243Z,96494.91
2022-12-24T08:41:12.527Z,96493.06
2022-12-24T08:43:40.570Z,96496.47
2022-12-24T08:46:11.675Z,96501.72
2022-12-24T08:48:39.828Z,96509.47
2022-12-24T08:51:09.662Z,96507.63
2022-12-24T08:53:38.468Z,96529.94
2022-12-24T08:56:09.117Z,96525.06
2022-12-24T08:58:38.232Z,96518.16
2022-12-24T09:01:33.563Z,96517.75
2022-12-24T09:04:03.010Z,96526.47
2022-12-24T09:06:31.045Z,96534.97
2022-12-24T09:08:59.314Z,96529.88
2022-12-24T09:11:27.390Z,96540.16
2022-12-24T09:13:56.202Z,96544.00
2022-12-24T09:16:24.389Z,96552.09
2022-12-24T09:18:53.807Z,96546.16
2022-12-24T09:21:21.850Z,96564.38
2022-12-24T09:23:50.262Z,96551.81
2022-12-24T09:26:21.561Z,96563.91
2022-12-24T09:28:50.591Z,96566.47
2022-12-24T09:31:19.936Z,96576.19
2022-12-24T09:33:50.740Z,96571.47
2022-12-24T09:36:20.774Z,96569.06
2022-12-24T09:38:49.277Z,96571.84
2022-12-24T09:41:35.913Z,96577.41
2022-12-24T09:44:17.524Z,96567.19
2022-12-24T09:46:48.469Z,96558.78
2022-12-24T09:49:23.238Z,96560.72
2022-12-24T09:51:58.256Z,96564.53
2022-12-24T09:54:31.798Z,96554.66
2022-12-24T09:57:06.123Z,96550.41
2022-12-24T09:59:42.379Z,96551.16
2022-12-24T10:02:15.246Z,96558.25
2022-12-24T10:04:45.044Z,96554.09
2022-12-24T10:07:29.388Z,96550.50
2022-12-24T10:10:12.330Z,96549.09
2022-12-24T10:12:50.252Z,96547.63
2022-12-24T10:15:29.161Z,96556.22
2022-12-24T10:18:19.302Z,96559.50
2022-12-24T10:20:52.895Z,96568.03
2022-12-24T10:23:28.606Z,96568.03
2022-12-24T10:26:12.467Z,96572.91
2022-12-24T10:28:48.169Z,96578.94
2022-12-24T10:31:16.860Z,96581.00
2022-12-24T10:33:51.573Z,96583.41
2022-12-24T10:36:24.414Z,96581.56
2022-12-24T10:38:53.890Z,96585.75
2022-12-24T10:41:21.956Z,96581.44
2022-12-24T10:43:50.611Z,96581.00
2022-12-24T10:46:23.559Z,96578.56
2022-12-24T10:48:59.092Z,96580.63
2022-12-24T10:51:37.824Z,96587.44
2022-12-24T10:54:14.213Z,96582.75
2022-12-24T10:56:46.336Z,96578.28
2022-12-24T10:59:28.583Z,96581.50
2022-12-24T11:01:58.566Z,96582.09
2022-12-24T11:04:29.416Z,96580.25
2022-12-24T11:06:59.862Z,96574.19
2022-12-24T11:09:31.880Z,96572.72
2022-12-24T11:12:08.668Z,96573.13
2022-12-24T11:14:39.759Z,96577.31
2022-12-24T11:17:08.113Z,96573.97
2022-12-24T11:19:40.051Z,96583.91
2022-12-24T11:22:18.072Z,96579.59
2022-12-24T11:24:55.978Z,96587.06
2022-12-24T11:27:35.164Z,96588.25
2022-12-24T11:30:31.422Z,96580.75
2022-12-24T11:33:21.670Z,96585.09
2022-12-24T11:36:02.447Z,96588.91
2022-12-24T11:38:33.927Z,96581.78
2022-12-24T11:41:09.072Z,96579.50
2022-12-24T11:43:45.524Z,96578.94
2022-12-24T11:46:35.816Z,96581.13
2022-12-24T11:49:18.269Z,96584.44
2022-12-24T11:52:22.927Z,96584.88
2022-12-24T11:55:18.135Z,96591.41
2022-12-24T11:58:01.595Z,96580.63
2022-12-24T12:00:30.280Z,96590.97
2022-12-24T12:03:04.120Z,96591.75
2022-12-24T12:05:36.058Z,96589.94
2022-12-24T12:08:15.577Z,96579.59
2022-12-24T12:10:46.463Z,96582.84
2022-12-24T12:13:20.083Z,96580.53
2022-12-24T12:15:53.054Z,96570.19
2022-12-24T12:18:25.944Z,96563.66
2022-12-24T12:20:59.161Z,96573.06
2022-12-24T12:23:31.698Z,96561.72
2022-12-24T12:26:03.555Z,96568.16
2022-12-24T12:28:40.747Z,96578.72
2022-12-24T12:31:17.482Z,96571.59
2022-12-24T12:33:51.053Z,96581.38
2022-12-24T12:36:26.898Z,96584.53
2022-12-24T12:38:55.634Z,96594.41
2022-12-24T12:41:46.106Z,96600.41
2022-12-24T12:44:41.272Z,96600.06
2022-12-24T12:47:53.282Z,96600.84
2022-12-24T12:50:30.998Z,96594.78
2022-12-24T12:53:31.917Z,96591.97
2022-12-24T12:56:11.554Z,96581.56
2022-12-24T12:58:45.582Z,96579.00
2022-12-24T13:01:22.492Z,96576.34
2022-12-24T13:04:41.134Z,96579.72
2022-12-24T13:08:02.538Z,96570.66
2022-12-24T13:10:53.504Z,96572.53
2022-12-24T13:14:30.531Z,96564.81
2022-12-24T13:17:21.040Z,96568.47
2022-12-24T13:20:14.687Z,96570.88
2022-12-24T13:22:51.418Z,96570.34
2022-12-24T13:25:27.296Z,96573.59
2022-12-24T13:27:55.552Z,96569.50
2022-12-24T13:30:40.849Z,96584.31
2022-12-24T13:33:13.340Z,96579.47
2022-12-24T13:36:01.319Z,96575.97
2022-12-24T13:38:43.247Z,96568.38
2022-12-24T13:41:57.012Z,96563.91
2022-12-24T13:44:33.069Z,96578.75
2022-12-24T13:47:24.075Z,96574.41
2022-12-24T13:50:08.993Z,96584.75
2022-12-24T13:52:42.302Z,96577.06
2022-12-24T13:55:18.427Z,96570.13
2022-12-24T13:57:57.476Z,96572.44
2022-12-24T14:00:44.550Z,96565.06
2022-12-24T14:03:31.042Z,96565.75
2022-12-24T14:06:04.368Z,96567.72
2022-12-24T14:08:39.150Z,96560.00
2022-12-24T14:11:12.201Z,96566.50
2022-12-24T14:14:26.682Z,96563.69
2022-12-24T14:16:59.009Z,96563.69
2022-12-24T14:19:37.379Z,96550.25
2022-12-24T14:22:28.291Z,96554.28
2022-12-24T14:25:00.374Z,96556.06
2022-12-24T14:27:39.550Z,96568.59
2022-12-24T14:30:17.144Z,96568.81
2022-12-24T14:32:46.009Z,96562.53
2022-12-24T14:35:19.278Z,96562.75
2022-12-24T14:37:53.892Z,96557.09
2022-12-24T14:40:29.579Z,96549.75
2022-12-24T14:43:07.531Z,96560.97
2022-12-24T14:45:44.266Z,96563.19
2022-12-24T14:48:23.219Z,96571.78
2022-12-24T14:51:07.796Z,96580.94
2022-12-24T14:53:59.593Z,96574.69
2022-12-24T14:56:27.625Z,96584.25
2022-12-24T14:58:56.686Z,96580.56
2022-12-24T15:01:28.299Z,96597.53
2022-12-24T15:04:05.836Z,96603.28
2022-12-24T15:06:37.537Z,96583.84
2022-12-24T15:09:12.882Z,96580.38
2022-12-24T15:11:44.727Z,96572.66
2022-12-24T15:14:14.510Z,96565.91
2022-12-24T15:16:43.040Z,96575.31
2022-12-24T15:19:22.779Z,96573.72
2022-12-24T15:21:51.021Z,96582.16
2022-12-24T15:24:29.240Z,96591.53
2022-12-24T15:26:57.650Z,96586.03
2022-12-24T15:29:28.674Z,96593.16
2022-12-24T15:31:59.275Z,96596.16
2022-12-24T15:34:29.856Z,96601.31
2022-12-24T15:37:08.551Z,96604.81
2022-12-24T15:39:39.234Z,96617.41
2022-12-24T15:42:14.771Z,96612.53
2022-12-24T15:44:50.404Z,96620.66
2022-12-24T15:47:25.846Z,96619.78
2022-12-24T15:49:54.134Z,96609.88
2022-12-24T15:52:25.310Z,96620.72
2022-12-24T15:54:58.013Z,96614.63
2022-12-24T15:57:32.595Z,96620.81
2022-12-24T16:00:03.342Z,96619.63
2022-12-24T16:02:40.295Z,96619.63
2022-12-24T16:05:34.879Z,96613.75
2022-12-24T16:08:22.749Z,96612.34
2022-12-24T16:11:07.702Z,96620.91
2022-12-24T16:13:39.762Z,96617.38
2022-12-24T16:16:11.465Z,96616.69
2022-12-24T16:18:48.406Z,96626.06
2022-12-24T16:21:24.255Z,96640.72
2022-12-24T16:23:56.098Z,96642.56
2022-12-24T16:26:25.517Z,96648.25
2022-12-24T16:28:53.544Z,96641.38
2022-12-24T16:31:32.703Z,96647.50
2022-12-24T16:34:02.292Z,96649.97
2022-12-24T16:36:31.762Z,96657.00
2022-12-24T16:39:17.914Z,96651.91
2022-12-24T16:42:04.863Z,96651.72
2022-12-24T16:44:32.874Z,96661.28
2022-12-24T16:47:01.970Z,96669.19
2022-12-24T16:49:30.812Z,96673.81
2022-12-24T16:51:58.832Z,96673.88
2022-12-24T16:54:26.822Z,96664.34
2022-12-24T16:56:56.158Z,96670.19
2022-12-24T16:59:25.837Z,96673.66
2022-12-24T17:01:53.981Z,96673.06
2022-12-24T17:04:22.055Z,96681.81
2022-12-24T17:06:51.082Z,96676.56
2022-12-24T17:09:19.131Z,96670.47
2022-12-24T17:11:47.190Z,96667.63
2022-12-24T17:14:20.249Z,96672.09
2022-12-24T17:16:48.780Z,96678.97
2022-12-24T17:19:17.915Z,96683.03
2022-12-24T17:21:46.467Z,96684.03
2022-12-24T17:24:14.525Z,96683.84
2022-12-24T17:26:43.531Z,96686.22
2022-12-24T17:29:12.038Z,96692.06
2022-12-24T17:31:42.857Z,96688.41
2022-12-24T17:34:11.127Z,96689.00
2022-12-24T17:36:40.127Z,96689.41
2022-12-24T17:39:08.158Z,96704.88
2022-12-24T17:41:36.215Z,96708.09
2022-12-24T17:44:04.823Z,96709.72
2022-12-24T17:46:32.872Z,96701.97
2022-12-24T17:49:02.681Z,96698.31
2022-12-24T17:51:33.244Z,96710.31
2022-12-24T17:54:02.129Z,96709.25
2022-12-24T17:56:30.876Z,96713.72
2022-12-24T17:58:59.561Z,96714.91
2022-12-24T18:01:30.693Z,96707.34
2022-12-24T18:04:01.376Z,96706.56
2022-12-24T18:06:30.965Z,96705.31
2022-12-24T18:08:59.098Z,96700.47
2022-12-24T18:11:30.428Z,96698.03
2022-12-24T18:14:00.807Z,96686.47
2022-12-24T18:16:32.624Z,96695.56
2022-12-24T18:19:05.084Z,96692.78
2022-12-24T18:21:34.660Z,96693.94
2022-12-24T18:24:03.193Z,96685.25
2022-12-24T18:26:33.127Z,96700.25
2022-12-24T18:29:04.424Z,96695.41
2022-12-24T18:31:34.365Z,96696.44
2022-12-24T18:34:06.009Z,96699.66
2022-12-24T18:36:36.164Z,96692.41
2022-12-24T18:39:06.054Z,96701.28
2022-12-24T18:41:35.335Z,96695.81
2022-12-24T18:44:03.634Z,96693.16
2022-12-24T18:46:34.172Z,96692.91
2022-12-24T18:49:03.263Z,96694.16
2022-12-24T18:51:36.233Z,96700.25
2022-12-24T18:54:04.687Z,96686.69
2022-12-24T18:56:32.795Z,96691.78
2022-12-24T18:59:03.584Z,96684.91
2022-12-24T19:01:34.887Z,96702.34
2022-12-24T19:04:04.167Z,96709.41
2022-12-24T19:06:32.361Z,96706.63
2022-12-24T19:09:02.267Z,96702.94
2022-12-24T19:11:32.951Z,96697.06
2022-12-24T19:14:02.981Z,96696.22
2022-12-24T19:16:34.634Z,96695.81
2022-12-24T19:19:04.496Z,96697.88
2022-12-24T19:21:32.904Z,96703.16
2022-12-24T19:24:02.533Z,96701.16
2022-12-24T19:26:30.528Z,96694.06
2022-12-24T19:28:58.532Z,96700.94
2022-12-24T19:31:27.304Z,96698.47
2022-12-24T19:33:57.566Z,96697.06
2022-12-24T19:36:28.751Z,96685.34
2022-12-24T19:38:57.546Z,96694.28
2022-12-24T19:41:29.578Z,96701.16
2022-12-24T19:44:00.778Z,96706.06
2022-12-24T19:46:31.997Z,96707.88
2022-12-24T19:49:02.050Z,96714.94
2022-12-24T19:51:30.723Z,96713.75
2022-12-24T19:54:01.251Z,96723.50
2022-12-24T19:56:33.550Z,96731.19
2022-12-24T19:59:02.842Z,96734.47
2022-12-24T20:01:33.967Z,96734.03
2022-12-24T20:04:02.793Z,96725.34
2022-12-24T20:06:33.809Z,96739.75
2022-12-24T20:09:04.843Z,96749.50
2022-12-24T20:11:35.628Z,96762.28
2022-12-24T20:14:06.393Z,96761.81
2022-12-24T20:16:35.539Z,96755.16
2022-12-24T20:19:06.696Z,96762.28
2022-12-24T20:21:35.642Z,96765.28
2022-12-24T20:24:03.726Z,96758.19
2022-12-24T20:26:32.039Z,96752.13
2022-12-24T20:29:04.965Z,96756.00
2022-12-24T20:31:33.268Z,96756.63
2022-12-24T20:34:02.962Z,96754.38
2022-12-24T20:36:32.344Z,96749.31
2022-12-24T20:39:01.423Z,96753.94
2022-12-24T20:41:32.014Z,96759.44
2022-12-24T20:44:02.192Z,96757.47
2022-12-24T20:46:31.121Z,96760.47
2022-12-24T20:48:59.453Z,96761.91
2022-12-24T20:51:29.495Z,96761.91
2022-12-24T20:53:59.873Z,96758.03
2022-12-24T20:56:28.552Z,96754.84
2022-12-24T20:58:57.251Z,96764.59
2022-12-24T21:01:28.427Z,96753.84
2022-12-24T21:04:00.196Z,96745.47
2022-12-24T21:06:28.810Z,96756.47
2022-12-24T21:08:57.005Z,96752.81
2022-12-24T21:11:43.003Z,96750.38
2022-12-24T21:14:12.055Z,96759.13
2022-12-24T21:16:42.241Z,96763.16
2022-12-24T21:19:14.451Z,96770.66
2022-12-24T21:21:42.463Z,96772.69
2022-12-24T21:24:11.785Z,96776.94
2022-12-24T21:26:39.891Z,96783.25
2022-12-24T21:29:09.110Z,96776.38
2022-12-24T21:31:38.165Z,96793.59
2022-12-24T21:34:07.721Z,96788.13
2022-12-24T21:36:35.879Z,96796.28
2022-12-24T21:39:04.901Z,96793.41
2022-12-24T21:41:32.930Z,96793.84
2022-12-24T21:44:02.636Z,96796.47
2022-12-24T21:46:31.067Z,96794.63
2022-12-24T21:49:16.604Z,96800.75
2022-12-24T21:51:48.669Z,96794.25
2022-12-24T21:54:28.522Z,96799.13
2022-12-24T21:57:16.841Z,96802.97
2022-12-24T21:59:45.391Z,96808.25
2022-12-24T22:02:40.167Z,96803.19
2022-12-24T22:05:10.528Z,96795.94
2022-12-24T22:07:59.518Z,96795.94
2022-12-24T22:10:46.947Z,96786.41
2022-12-24T22:13:40.504Z,96776.06
2022-12-24T22:16:13.001Z,96770.59
2022-12-24T22:18:41.771Z,96762.81
2022-12-24T22:21:09.773Z,96754.44
2022-12-24T22:23:42.628Z,96744.22
2022-12-24T22:26:14.798Z,96739.88
2022-12-24T22:28:42.879Z,96728.19
2022-12-24T22:31:18.610Z,96731.03
2022-12-24T22:33:46.755Z,96717.59
2022-12-24T22:36:14.808Z,96722.22
2022-12-24T22:38:45.715Z,96716.09
2022-12-24T22:41:15.045Z,96724.59
2022-12-24T22:43:43.417Z,96707.56
2022-12-24T22:46:14.243Z,96710.22
2022-12-24T22:48:44.008Z,96714.03
2022-12-24T22:51:14.800Z,96708.34
2022-12-24T22:53:44.925Z,96719.03
2022-12-24T22:56:16.779Z,96720.72
2022-12-24T22:58:44.933Z,96717.44
2022-12-24T23:01:13.189Z,96726.31
2022-12-24T23:03:41.334Z,96716.63
2022-12-24T23:06:09.985Z,96717.44
2022-12-24T23:08:38.948Z,96717.44
2022-12-24T23:11:11.055Z,96721.03
2022-12-24T23:13:56.034Z,96714.38
2022-12-24T23:16:24.143Z,96722.72
2022-12-24T23:18:52.179Z,96730.41
2022-12-24T23:21:20.526Z,96728.34
2022-12-24T23:23:48.564Z,96730.19
2022-12-24T23:26:21.061Z,96726.75
2022-12-24T23:28:49.967Z,96723.13
2022-12-24T23:31:18.164Z,96726.59
2022-12-24T23:33:46.994Z,96723.53
2022-12-24T23:36:15.766Z,96721.47
2022-12-24T23:38:43.910Z,96722.28
2022-12-24T23:41:12.638Z,96725.88
2022-12-24T23:43:41.985Z,96720.00
2022-12-24T23:46:14.550Z,96721.41
2022-12-24T23:48:43.007Z,96713.69
2022-12-24T23:51:15.163Z,96703.75
2022-12-24T23:53:43.416Z,96704.38
2022-12-24T23:56:12.878Z,96696.69
2022-12-24T23:58:43.694Z,96694.84
